createdAt,value
2019-05-03T00:00:52.091Z,998.58
2019-05-03T00:01:52.817Z,998.60
2019-05-03T00:02:52.355Z,998.63
2019-05-03T00:03:52.668Z,998.63
2019-05-03T00:04:52.975Z,998.60
2019-05-03T00:05:53.317Z,998.61
2019-05-03T00:06:53.516Z,998.63
2019-05-03T00:07:54.045Z,998.57
2019-05-03T00:09:54.192Z,998.68
2019-05-03T00:10:54.620Z,998.62
2019-05-03T00:11:54.946Z,998.57
2019-05-03T00:12:55.443Z,998.62
2019-05-03T00:13:55.204Z,998.68
2019-05-03T00:14:55.458Z,998.62
2019-05-03T00:15:55.697Z,998.60
2019-05-03T00:17:55.839Z,998.58
2019-05-03T00:18:56.096Z,998.64
2019-05-03T00:19:56.359Z,998.57
2019-05-03T00:20:56.887Z,998.57
2019-05-03T00:21:56.821Z,998.61
2019-05-03T00:22:57.105Z,998.57
2019-05-03T00:23:57.352Z,998.61
2019-05-03T00:25:05.899Z,998.63
2019-05-03T00:25:58.166Z,998.62
2019-05-03T00:26:58.469Z,998.62
2019-05-03T00:27:58.944Z,998.64
2019-05-03T00:28:59.186Z,998.61
2019-05-03T00:29:59.597Z,998.67
2019-05-03T00:31:01.847Z,998.71
2019-05-03T00:32:01.922Z,998.65
2019-05-03T00:33:02.721Z,998.71
2019-05-03T00:34:02.240Z,998.69
2019-05-03T00:35:01.810Z,998.61
2019-05-03T00:36:02.442Z,998.65
2019-05-03T00:37:01.871Z,998.69
2019-05-03T00:38:02.140Z,998.71
2019-05-03T00:39:02.694Z,998.69
2019-05-03T00:40:02.957Z,998.65
2019-05-03T00:41:02.934Z,998.68
2019-05-03T00:42:02.989Z,998.75
2019-05-03T00:43:03.344Z,998.74
2019-05-03T00:44:03.401Z,998.73
2019-05-03T00:45:03.722Z,998.66
2019-05-03T00:46:03.653Z,998.68
2019-05-03T00:47:04.012Z,998.67
2019-05-03T00:48:04.568Z,998.66
2019-05-03T00:49:04.627Z,998.69
2019-05-03T00:50:04.604Z,998.62
2019-05-03T00:51:05.102Z,998.69
2019-05-03T00:52:05.591Z,998.71
2019-05-03T00:53:06.009Z,998.68
2019-05-03T00:54:06.221Z,998.71
2019-05-03T00:55:16.127Z,998.61
2019-05-03T00:56:06.503Z,998.62
2019-05-03T00:57:06.872Z,998.64
2019-05-03T00:58:07.414Z,998.57
2019-05-03T00:59:07.400Z,998.65
2019-05-03T01:00:07.669Z,998.71
2019-05-03T01:01:07.918Z,998.57
2019-05-03T01:02:08.218Z,998.59
2019-05-03T01:03:08.627Z,998.61
2019-05-03T01:04:09.000Z,998.60
2019-05-03T01:05:09.490Z,998.66
2019-05-03T01:06:11.569Z,998.60
2019-05-03T01:07:11.757Z,998.63
2019-05-03T01:08:12.511Z,998.68
2019-05-03T01:09:11.815Z,998.70
2019-05-03T01:10:11.853Z,998.55
2019-05-03T01:11:12.647Z,998.56
2019-05-03T01:12:12.600Z,998.71
2019-05-03T01:13:12.417Z,998.69
2019-05-03T01:14:12.638Z,998.65
2019-05-03T01:15:13.216Z,998.63
2019-05-03T01:16:13.267Z,998.73
2019-05-03T01:17:13.389Z,998.72
2019-05-03T01:18:13.945Z,998.70
2019-05-03T01:19:14.184Z,998.73
2019-05-03T01:20:14.780Z,998.63
2019-05-03T01:21:14.735Z,998.72
2019-05-03T01:22:15.002Z,998.74
2019-05-03T01:23:15.533Z,998.72
2019-05-03T01:24:18.107Z,998.75
2019-05-03T01:25:28.806Z,998.73
2019-05-03T01:26:15.939Z,998.70
2019-05-03T01:27:16.177Z,998.71
2019-05-03T01:28:16.656Z,998.73
2019-05-03T01:29:16.958Z,998.67
2019-05-03T01:30:17.563Z,998.67
2019-05-03T01:31:17.544Z,998.65
2019-05-03T01:32:17.514Z,998.74
2019-05-03T01:33:17.772Z,998.66
2019-05-03T01:34:18.027Z,998.69
2019-05-03T01:35:18.345Z,998.71
2019-05-03T01:36:18.612Z,998.80
2019-05-03T01:37:18.979Z,998.80
2019-05-03T01:38:19.518Z,998.84
2019-05-03T01:39:18.999Z,998.81
2019-05-03T01:40:19.421Z,998.80
2019-05-03T01:41:21.603Z,998.73
2019-05-03T01:42:19.908Z,998.77
2019-05-03T01:43:22.144Z,998.76
2019-05-03T01:44:22.004Z,998.77
2019-05-03T01:45:22.624Z,998.78
2019-05-03T01:46:22.859Z,998.76
2019-05-03T01:47:21.932Z,998.90
2019-05-03T01:48:21.750Z,998.84
2019-05-03T01:49:22.836Z,998.86
2019-05-03T01:50:22.877Z,998.81
2019-05-03T01:51:22.565Z,998.77
2019-05-03T01:52:23.066Z,998.85
2019-05-03T01:53:23.195Z,998.79
2019-05-03T01:54:23.434Z,998.80
2019-05-03T01:55:23.680Z,998.82
2019-05-03T01:56:24.126Z,998.85
2019-05-03T01:57:24.407Z,998.78
2019-05-03T01:58:24.657Z,998.81
2019-05-03T01:59:25.137Z,998.83
2019-05-03T02:00:25.470Z,998.89
2019-05-03T02:01:25.996Z,998.88
2019-05-03T02:02:25.973Z,998.82
2019-05-03T02:03:26.273Z,998.85
2019-05-03T02:04:26.726Z,998.84
2019-05-03T02:05:26.571Z,998.87
2019-05-03T02:06:27.190Z,998.91
2019-05-03T02:07:26.945Z,998.90
2019-05-03T02:09:27.606Z,998.97
2019-05-03T02:10:27.860Z,998.99
2019-05-03T02:11:28.112Z,999.02
2019-05-03T02:12:28.645Z,999.03
2019-05-03T02:13:28.447Z,999.08
2019-05-03T02:14:28.999Z,999.04
2019-05-03T02:15:28.853Z,999.06
2019-05-03T02:16:29.150Z,999.02
2019-05-03T02:17:29.505Z,998.99
2019-05-03T02:18:31.718Z,999.09
2019-05-03T02:19:29.920Z,999.04
2019-05-03T02:20:32.295Z,999.12
2019-05-03T02:21:32.220Z,999.07
2019-05-03T02:22:31.938Z,999.06
2019-05-03T02:23:32.065Z,998.99
2019-05-03T02:24:32.725Z,998.97
2019-05-03T02:25:32.392Z,998.96
2019-05-03T02:26:32.538Z,999.03
2019-05-03T02:27:32.879Z,998.97
2019-05-03T02:28:33.221Z,998.97
2019-05-03T02:29:33.615Z,999.03
2019-05-03T02:30:33.930Z,999.01
2019-05-03T02:31:34.200Z,999.07
2019-05-03T02:32:34.609Z,999.04
2019-05-03T02:33:35.175Z,999.03
2019-05-03T02:34:34.903Z,999.07
2019-05-03T02:35:35.353Z,999.03
2019-05-03T02:36:35.881Z,999.07
2019-05-03T02:37:35.818Z,999.05
2019-05-03T02:38:35.964Z,998.99
2019-05-03T02:39:36.189Z,999.06
2019-05-03T02:40:36.502Z,999.09
2019-05-03T02:41:36.762Z,999.08
2019-05-03T02:42:37.012Z,999.13
2019-05-03T02:43:37.373Z,999.10
2019-05-03T02:44:37.732Z,999.07
2019-05-03T02:45:37.985Z,999.08
2019-05-03T02:46:38.042Z,999.10
2019-05-03T02:47:38.382Z,998.97
2019-05-03T02:48:38.719Z,999.03
2019-05-03T02:49:38.763Z,999.09
2019-05-03T02:50:39.264Z,999.12
2019-05-03T02:51:39.518Z,999.13
2019-05-03T02:52:39.786Z,999.18
2019-05-03T02:53:40.047Z,999.16
2019-05-03T02:54:40.301Z,999.14
2019-05-03T02:55:40.556Z,999.15
2019-05-03T02:56:41.055Z,999.18
2019-05-03T02:57:41.405Z,999.18
2019-05-03T02:58:41.564Z,999.20
2019-05-03T02:59:41.878Z,999.19
2019-05-03T03:00:42.139Z,999.18
2019-05-03T03:01:42.840Z,999.17
2019-05-03T03:02:45.654Z,999.18
2019-05-03T03:03:45.716Z,999.14
2019-05-03T03:04:45.365Z,999.16
2019-05-03T03:05:46.286Z,999.22
2019-05-03T03:06:45.475Z,999.23
2019-05-03T03:07:45.986Z,999.21
2019-05-03T03:08:45.548Z,999.18
2019-05-03T03:09:45.543Z,999.19
2019-05-03T03:10:46.080Z,999.22
2019-05-03T03:11:46.032Z,999.14
2019-05-03T03:12:46.630Z,999.19
2019-05-03T03:13:46.760Z,999.20
2019-05-03T03:14:47.124Z,999.17
2019-05-03T03:15:47.642Z,999.19
2019-05-03T03:16:47.773Z,999.21
2019-05-03T03:17:48.320Z,999.20
2019-05-03T03:18:48.143Z,999.19
2019-05-03T03:19:48.466Z,999.26
2019-05-03T03:20:48.761Z,999.28
2019-05-03T03:21:49.041Z,999.27
2019-05-03T03:22:49.333Z,999.25
2019-05-03T03:23:49.854Z,999.30
2019-05-03T03:24:50.015Z,999.29
2019-05-03T03:26:50.393Z,999.28
2019-05-03T03:27:50.751Z,999.26
2019-05-03T03:28:50.860Z,999.28
2019-05-03T03:29:51.214Z,999.30
2019-05-03T03:30:51.398Z,999.36
2019-05-03T03:31:51.723Z,999.32
2019-05-03T03:32:51.817Z,999.34
2019-05-03T03:33:52.074Z,999.36
2019-05-03T03:34:56.951Z,999.27
2019-05-03T03:35:52.594Z,999.28
2019-05-03T03:37:55.764Z,999.38
2019-05-03T03:38:55.426Z,999.36
2019-05-03T03:39:56.140Z,999.39
2019-05-03T03:40:58.622Z,999.37
2019-05-03T03:41:55.766Z,999.35
2019-05-03T03:42:55.756Z,999.29
2019-05-03T03:43:55.775Z,999.31
2019-05-03T03:44:56.249Z,999.29
2019-05-03T03:45:55.914Z,999.31
2019-05-03T03:46:56.361Z,999.32
2019-05-03T03:47:56.774Z,999.44
2019-05-03T03:48:56.925Z,999.44
2019-05-03T03:49:57.382Z,999.42
2019-05-03T03:50:57.887Z,999.52
2019-05-03T03:51:58.133Z,999.44
2019-05-03T03:52:58.369Z,999.54
2019-05-03T03:53:58.793Z,999.50
2019-05-03T03:54:59.101Z,999.57
2019-05-03T03:55:59.359Z,999.61
2019-05-03T03:57:04.869Z,999.52
2019-05-03T03:58:00.310Z,999.53
2019-05-03T03:59:00.342Z,999.60
2019-05-03T04:00:00.779Z,999.61
2019-05-03T04:01:01.022Z,999.57
2019-05-03T04:02:00.945Z,999.60
2019-05-03T04:03:01.497Z,999.64
2019-05-03T04:04:01.460Z,999.59
2019-05-03T04:05:02.010Z,999.71
2019-05-03T04:06:02.442Z,999.73
2019-05-03T04:07:02.512Z,999.72
2019-05-03T04:08:05.407Z,999.78
2019-05-03T04:09:05.103Z,999.75
2019-05-03T04:10:05.540Z,999.74
2019-05-03T04:11:03.188Z,999.76
2019-05-03T04:13:05.468Z,999.79
2019-05-03T04:14:05.426Z,999.74
2019-05-03T04:15:05.722Z,999.78
2019-05-03T04:16:05.531Z,999.84
2019-05-03T04:17:05.929Z,999.91
2019-05-03T04:18:05.626Z,999.83
2019-05-03T04:19:05.823Z,999.85
2019-05-03T04:20:05.115Z,999.90
2019-05-03T04:21:05.499Z,999.87
2019-05-03T04:22:05.938Z,999.95
2019-05-03T04:23:05.405Z,999.98
2019-05-03T04:24:05.992Z,1000.05
2019-05-03T04:25:07.245Z,1000.02
2019-05-03T04:26:06.999Z,999.99
2019-05-03T04:27:18.672Z,999.96
2019-05-03T04:28:06.149Z,1000.02
2019-05-03T04:29:06.057Z,1000.03
2019-05-03T04:30:06.324Z,1000.03
2019-05-03T04:31:06.734Z,1000.03
2019-05-03T04:32:07.019Z,1000.02
2019-05-03T04:33:07.620Z,1000.04
2019-05-03T04:34:07.847Z,1000.01
2019-05-03T04:35:08.117Z,1000.01
2019-05-03T04:36:08.616Z,1000.02
2019-05-03T04:37:08.620Z,1000.01
2019-05-03T04:38:08.861Z,1000.02
2019-05-03T04:39:09.108Z,1000.02
2019-05-03T04:40:09.422Z,1000.02
2019-05-03T04:41:09.903Z,1000.05
2019-05-03T04:42:10.155Z,1000.04
2019-05-03T04:43:10.424Z,1000.06
2019-05-03T04:44:10.897Z,1000.08
2019-05-03T04:45:11.166Z,1000.07
2019-05-03T04:46:11.444Z,1000.05
2019-05-03T04:47:11.826Z,1000.05
2019-05-03T04:48:12.084Z,1000.05
2019-05-03T04:49:15.018Z,1000.17
2019-05-03T04:50:12.860Z,1000.18
2019-05-03T04:51:13.360Z,1000.14
2019-05-03T04:52:16.459Z,1000.15
2019-05-03T04:53:16.120Z,1000.16
2019-05-03T04:54:16.401Z,1000.16
2019-05-03T04:55:16.137Z,1000.18
2019-05-03T04:56:16.913Z,1000.18
2019-05-03T04:57:17.574Z,1000.20
2019-05-03T04:58:16.302Z,1000.22
2019-05-03T04:59:16.361Z,1000.22
2019-05-03T05:00:16.976Z,1000.23
2019-05-03T05:01:16.762Z,1000.24
2019-05-03T05:02:17.061Z,1000.24
2019-05-03T05:03:17.397Z,1000.27
2019-05-03T05:04:17.817Z,1000.28
2019-05-03T05:05:18.166Z,1000.31
2019-05-03T05:06:18.507Z,1000.39
2019-05-03T05:07:18.741Z,1000.39
2019-05-03T05:08:19.100Z,1000.38
2019-05-03T05:09:19.342Z,1000.41
2019-05-03T05:10:19.809Z,1000.42
2019-05-03T05:11:20.092Z,1000.42
2019-05-03T05:12:20.375Z,1000.44
2019-05-03T05:13:20.876Z,1000.44
2019-05-03T05:14:21.291Z,1000.45
2019-05-03T05:16:21.547Z,1000.42
2019-05-03T05:17:21.834Z,1000.49
2019-05-03T05:18:22.036Z,1000.49
2019-05-03T05:19:22.123Z,1000.47
2019-05-03T05:20:22.075Z,1000.53
2019-05-03T05:21:22.619Z,1000.49
2019-05-03T05:22:24.675Z,1000.54
2019-05-03T05:23:24.970Z,1000.55
2019-05-03T05:24:25.388Z,1000.59
2019-05-03T05:25:25.127Z,1000.57
2019-05-03T05:26:24.870Z,1000.58
2019-05-03T05:27:25.604Z,1000.64
2019-05-03T05:28:25.031Z,1000.61
2019-05-03T05:29:25.364Z,1000.61
2019-05-03T05:30:25.338Z,1000.69
2019-05-03T05:31:25.587Z,1000.69
2019-05-03T05:32:25.924Z,1000.67
2019-05-03T05:33:25.871Z,1000.67
2019-05-03T05:34:26.226Z,1000.67
2019-05-03T05:35:26.657Z,1000.67
2019-05-03T05:36:27.230Z,1000.68
2019-05-03T05:37:27.125Z,1000.67
2019-05-03T05:38:27.393Z,1000.67
2019-05-03T05:39:27.664Z,1000.69
2019-05-03T05:40:27.989Z,1000.67
2019-05-03T05:41:28.265Z,1000.68
2019-05-03T05:42:28.581Z,1000.68
2019-05-03T05:43:29.003Z,1000.70
2019-05-03T05:44:29.287Z,1000.73
2019-05-03T05:45:29.650Z,1000.74
2019-05-03T05:46:29.906Z,1000.76
2019-05-03T05:47:30.179Z,1000.76
2019-05-03T05:48:30.876Z,1000.76
2019-05-03T05:49:30.992Z,1000.74
2019-05-03T05:50:31.282Z,1000.73
2019-05-03T05:51:31.861Z,1000.71
2019-05-03T05:52:34.516Z,1000.72
2019-05-03T05:53:32.182Z,1000.73
2019-05-03T05:54:32.496Z,1000.73
2019-05-03T05:55:34.432Z,1000.74
2019-05-03T05:56:34.833Z,1000.75
2019-05-03T05:57:34.646Z,1000.75
2019-05-03T05:58:34.844Z,1000.75
2019-05-03T05:59:34.960Z,1000.75
2019-05-03T06:00:35.807Z,1000.77
2019-05-03T06:01:35.358Z,1000.77
2019-05-03T06:02:35.884Z,1000.79
2019-05-03T06:03:34.425Z,1000.82
2019-05-03T06:04:34.914Z,1000.82
2019-05-03T06:05:35.564Z,1000.82
2019-05-03T06:06:35.009Z,1000.80
2019-05-03T06:07:35.198Z,1000.80
2019-05-03T06:08:35.514Z,1000.78
2019-05-03T06:09:35.248Z,1000.76
2019-05-03T06:10:35.382Z,1000.73
2019-05-03T06:11:35.738Z,1000.71
2019-05-03T06:12:35.618Z,1000.70
2019-05-03T06:13:36.236Z,1000.72
2019-05-03T06:14:36.552Z,1000.74
2019-05-03T06:15:36.459Z,1000.75
2019-05-03T06:16:37.137Z,1000.79
2019-05-03T06:17:37.003Z,1000.82
2019-05-03T06:18:37.606Z,1000.84
2019-05-03T06:19:37.888Z,1000.85
2019-05-03T06:20:37.794Z,1000.87
2019-05-03T06:21:37.962Z,1000.87
2019-05-03T06:22:38.356Z,1000.89
2019-05-03T06:24:38.701Z,1000.90
2019-05-03T06:25:38.978Z,1000.92
2019-05-03T06:26:39.105Z,1000.93
2019-05-03T06:27:39.561Z,1000.93
2019-05-03T06:28:41.703Z,1000.93
2019-05-03T06:29:40.135Z,1000.94
2019-05-03T06:30:40.439Z,1000.93
2019-05-03T06:31:40.997Z,1000.95
2019-05-03T06:32:40.764Z,1000.96
2019-05-03T06:33:41.093Z,1000.97
2019-05-03T06:34:41.383Z,1000.97
2019-05-03T06:35:41.627Z,1000.96
2019-05-03T06:36:41.901Z,1000.98
2019-05-03T06:37:42.204Z,1000.99
2019-05-03T06:38:42.413Z,1000.99
2019-05-03T06:39:42.786Z,1000.99
2019-05-03T06:40:44.327Z,1000.99
2019-05-03T06:41:44.564Z,1001.00
2019-05-03T06:42:52.513Z,1001.01
2019-05-03T06:43:45.001Z,1001.01
2019-05-03T06:44:45.525Z,1001.03
2019-05-03T06:45:46.677Z,1001.03
2019-05-03T06:46:45.587Z,1001.05
2019-05-03T06:47:49.612Z,1001.07
2019-05-03T06:48:45.390Z,1001.08
2019-05-03T06:49:48.449Z,1001.07
2019-05-03T06:50:45.653Z,1001.07
2019-05-03T06:51:49.598Z,1001.09
2019-05-03T06:52:46.175Z,1001.09
2019-05-03T06:54:46.595Z,1001.08
2019-05-03T06:55:48.406Z,1001.10
2019-05-03T06:56:47.313Z,1001.11
2019-05-03T06:57:49.530Z,1001.11
2019-05-03T06:58:47.826Z,1001.10
2019-05-03T06:59:48.071Z,1001.11
2019-05-03T07:00:48.727Z,1001.12
2019-05-03T07:01:48.870Z,1001.14
2019-05-03T07:02:48.880Z,1001.15
2019-05-03T07:03:48.783Z,1001.15
2019-05-03T07:04:49.027Z,1001.18
2019-05-03T07:05:49.472Z,1001.19
2019-05-03T07:06:49.550Z,1001.19
2019-05-03T07:07:50.270Z,1001.20
2019-05-03T07:08:50.231Z,1001.22
2019-05-03T07:09:50.804Z,1001.23
2019-05-03T07:10:50.777Z,1001.25
2019-05-03T07:11:51.034Z,1001.26
2019-05-03T07:12:51.301Z,1001.26
2019-05-03T07:13:51.828Z,1001.27
2019-05-03T07:14:52.261Z,1001.26
2019-05-03T07:15:52.673Z,1001.25
2019-05-03T07:16:52.938Z,1001.24
2019-05-03T07:17:55.416Z,1001.26
2019-05-03T07:18:56.590Z,1001.26
2019-05-03T07:19:54.677Z,1001.26
2019-05-03T07:20:56.928Z,1001.26
2019-05-03T07:21:54.667Z,1001.28
2019-05-03T07:22:55.743Z,1001.29
2019-05-03T07:23:55.279Z,1001.29
2019-05-03T07:24:55.540Z,1001.29
2019-05-03T07:25:55.823Z,1001.32
2019-05-03T07:26:55.775Z,1001.30
2019-05-03T07:27:56.051Z,1001.31
2019-05-03T07:28:56.313Z,1001.31
2019-05-03T07:29:56.721Z,1001.32
2019-05-03T07:30:57.012Z,1001.36
2019-05-03T07:31:56.792Z,1001.37
2019-05-03T07:32:57.010Z,1001.38
2019-05-03T07:33:57.253Z,1001.37
2019-05-03T07:34:57.622Z,1001.38
2019-05-03T07:35:57.899Z,1001.40
2019-05-03T07:36:58.197Z,1001.39
2019-05-03T07:37:58.462Z,1001.41
2019-05-03T07:38:58.718Z,1001.42
2019-05-03T07:39:58.943Z,1001.44
2019-05-03T07:40:59.209Z,1001.44
2019-05-03T07:41:59.525Z,1001.43
2019-05-03T07:42:59.786Z,1001.43
2019-05-03T07:44:00.201Z,1001.42
2019-05-03T07:45:00.731Z,1001.42
2019-05-03T07:46:00.726Z,1001.44
2019-05-03T07:47:01.277Z,1001.45
2019-05-03T07:48:01.017Z,1001.44
2019-05-03T07:49:01.573Z,1001.43
2019-05-03T07:50:01.867Z,1001.43
2019-05-03T07:51:01.868Z,1001.43
2019-05-03T07:52:02.441Z,1001.41
2019-05-03T07:53:04.494Z,1001.36
2019-05-03T07:54:04.663Z,1001.40
2019-05-03T07:55:04.629Z,1001.41
2019-05-03T07:56:05.054Z,1001.41
2019-05-03T07:57:05.118Z,1001.45
2019-05-03T07:58:04.622Z,1001.44
2019-05-03T07:59:06.219Z,1001.46
2019-05-03T08:00:05.019Z,1001.35
2019-05-03T08:01:09.382Z,1001.37
2019-05-03T08:02:05.527Z,1001.38
2019-05-03T08:03:05.025Z,1001.37
2019-05-03T08:04:05.415Z,1001.41
2019-05-03T08:05:05.210Z,1001.40
2019-05-03T08:06:05.172Z,1001.31
2019-05-03T08:07:05.798Z,1001.33
2019-05-03T08:08:05.737Z,1001.29
2019-05-03T08:09:06.157Z,1001.30
2019-05-03T08:10:06.395Z,1001.37
2019-05-03T08:11:06.951Z,1001.32
2019-05-03T08:12:06.987Z,1001.30
2019-05-03T08:13:07.033Z,1001.31
2019-05-03T08:14:06.884Z,1001.28
2019-05-03T08:15:06.923Z,1001.28
2019-05-03T08:16:07.206Z,1001.24
2019-05-03T08:17:07.651Z,1001.24
2019-05-03T08:18:08.089Z,1001.18
2019-05-03T08:19:08.410Z,1001.24
2019-05-03T08:20:08.942Z,1001.19
2019-05-03T08:21:09.063Z,1001.18
2019-05-03T08:22:09.055Z,1001.17
2019-05-03T08:23:09.304Z,1001.22
2019-05-03T08:24:09.888Z,1001.29
2019-05-03T08:25:09.946Z,1001.23
2019-05-03T08:26:10.003Z,1001.24
2019-05-03T08:27:09.820Z,1001.24
2019-05-03T08:28:10.331Z,1001.17
2019-05-03T08:29:15.947Z,1001.19
2019-05-03T08:30:11.020Z,1001.19
2019-05-03T08:31:11.232Z,1001.17
2019-05-03T08:32:11.057Z,1001.18
2019-05-03T08:33:11.311Z,1001.23
2019-05-03T08:34:11.597Z,1001.12
2019-05-03T08:35:11.738Z,1001.14
2019-05-03T08:36:12.055Z,1001.23
2019-05-03T08:37:12.327Z,1001.10
2019-05-03T08:38:12.748Z,1001.12
2019-05-03T08:39:13.221Z,1001.16
2019-05-03T08:40:15.532Z,1001.05
2019-05-03T08:41:14.552Z,1001.03
2019-05-03T08:42:14.964Z,1001.14
2019-05-03T08:43:15.591Z,1001.14
2019-05-03T08:44:14.587Z,1001.16
2019-05-03T08:45:14.959Z,1001.09
2019-05-03T08:46:14.918Z,1001.14
2019-05-03T08:47:15.514Z,1001.17
2019-05-03T08:48:15.310Z,1001.16
2019-05-03T08:49:15.098Z,1001.14
2019-05-03T08:50:21.190Z,1001.16
2019-05-03T08:51:15.074Z,1001.12
2019-05-03T08:52:15.778Z,1001.10
2019-05-03T08:53:15.826Z,1001.20
2019-05-03T08:54:15.935Z,1001.13
2019-05-03T08:55:16.238Z,1001.24
2019-05-03T08:56:16.601Z,1001.19
2019-05-03T08:57:16.850Z,1001.12
2019-05-03T08:58:17.116Z,1001.11
2019-05-03T08:59:29.025Z,1001.11
2019-05-03T09:00:18.093Z,1001.09
2019-05-03T09:01:18.140Z,1001.14
2019-05-03T09:02:18.997Z,1001.12
2019-05-03T09:03:18.913Z,1001.14
2019-05-03T09:04:19.173Z,1001.11
2019-05-03T09:05:19.541Z,1001.11
2019-05-03T09:06:19.841Z,1001.05
2019-05-03T09:07:20.182Z,1001.04
2019-05-03T09:08:20.417Z,1001.03
2019-05-03T09:09:20.831Z,1001.03
2019-05-03T09:10:20.953Z,1000.97
2019-05-03T09:11:32.703Z,1001.12
2019-05-03T09:12:21.102Z,1001.07
2019-05-03T09:13:21.422Z,1000.93
2019-05-03T09:14:21.686Z,1000.92
2019-05-03T09:15:22.115Z,1000.95
2019-05-03T09:16:22.591Z,1001.03
2019-05-03T09:17:24.676Z,1001.02
2019-05-03T09:18:23.225Z,1001.02
2019-05-03T09:19:25.284Z,1001.02
2019-05-03T09:20:25.089Z,1000.97
2019-05-03T09:21:25.544Z,1001.03
2019-05-03T09:22:25.570Z,1000.88
2019-05-03T09:23:26.061Z,1000.97
2019-05-03T09:24:25.158Z,1000.96
2019-05-03T09:25:25.499Z,1000.93
2019-05-03T09:26:29.102Z,1000.96
2019-05-03T09:27:25.935Z,1001.02
2019-05-03T09:28:29.081Z,1000.98
2019-05-03T09:29:26.445Z,1001.02
2019-05-03T09:30:26.969Z,1000.93
2019-05-03T09:31:27.020Z,1000.92
2019-05-03T09:32:29.554Z,1000.93
2019-05-03T09:33:26.967Z,1000.92
2019-05-03T09:34:27.238Z,1000.92
2019-05-03T09:35:32.896Z,1000.93
2019-05-03T09:36:27.571Z,1000.82
2019-05-03T09:37:27.828Z,1000.86
2019-05-03T09:38:28.293Z,1000.89
2019-05-03T09:39:28.535Z,1000.93
2019-05-03T09:40:28.643Z,1000.92
2019-05-03T09:41:29.055Z,1000.89
2019-05-03T09:42:29.542Z,1000.89
2019-05-03T09:43:29.808Z,1000.88
2019-05-03T09:44:30.063Z,1000.84
2019-05-03T09:45:30.480Z,1000.83
2019-05-03T09:46:31.058Z,1000.93
2019-05-03T09:47:30.940Z,1000.83
2019-05-03T09:48:31.203Z,1000.79
2019-05-03T09:49:31.517Z,1000.83
2019-05-03T09:50:31.820Z,1000.93
2019-05-03T09:51:32.297Z,1000.93
2019-05-03T09:52:35.358Z,1000.90
2019-05-03T09:53:35.008Z,1000.94
2019-05-03T09:54:34.782Z,1000.92
2019-05-03T09:55:35.355Z,1000.84
2019-05-03T09:56:34.626Z,1000.87
2019-05-03T09:57:34.709Z,1000.87
2019-05-03T09:58:36.403Z,1000.91
2019-05-03T09:59:35.096Z,1000.88
2019-05-03T10:00:35.113Z,1000.78
2019-05-03T10:01:35.012Z,1000.79
2019-05-03T10:02:35.589Z,1000.79
2019-05-03T10:03:36.542Z,1000.85
2019-05-03T10:04:36.648Z,1000.93
2019-05-03T10:05:35.901Z,1000.84
2019-05-03T10:06:35.984Z,1000.87
2019-05-03T10:07:36.048Z,1000.82
2019-05-03T10:08:36.337Z,1000.77
2019-05-03T10:09:36.621Z,1000.78
2019-05-03T10:10:37.102Z,1000.84
2019-05-03T10:11:37.043Z,1000.91
2019-05-03T10:12:37.311Z,1000.96
2019-05-03T10:13:37.570Z,1000.92
2019-05-03T10:14:37.844Z,1000.89
2019-05-03T10:15:38.218Z,1000.93
2019-05-03T10:16:38.294Z,1000.88
2019-05-03T10:17:38.779Z,1000.89
2019-05-03T10:18:39.080Z,1000.89
2019-05-03T10:19:40.437Z,1000.91
2019-05-03T10:20:39.794Z,1000.99
2019-05-03T10:21:40.050Z,1001.07
2019-05-03T10:22:40.151Z,1000.91
2019-05-03T10:23:40.407Z,1000.99
2019-05-03T10:24:40.981Z,1000.97
2019-05-03T10:25:40.747Z,1000.82
2019-05-03T10:26:40.894Z,1000.87
2019-05-03T10:27:41.136Z,1000.93
2019-05-03T10:28:41.637Z,1000.86
2019-05-03T10:29:41.716Z,1000.85
2019-05-03T10:30:41.978Z,1000.90
2019-05-03T10:31:42.215Z,1000.95
2019-05-03T10:32:44.835Z,1000.95
2019-05-03T10:33:44.987Z,1000.93
2019-05-03T10:34:42.927Z,1000.91
2019-05-03T10:35:45.090Z,1000.95
2019-05-03T10:36:43.582Z,1000.93
2019-05-03T10:37:45.312Z,1000.88
2019-05-03T10:38:45.923Z,1000.92
2019-05-03T10:39:45.533Z,1000.94
2019-05-03T10:40:45.338Z,1000.96
2019-05-03T10:41:45.456Z,1000.92
2019-05-03T10:42:45.661Z,1001.06
2019-05-03T10:43:45.981Z,1001.08
2019-05-03T10:44:46.325Z,1001.02
2019-05-03T10:45:46.589Z,1001.03
2019-05-03T10:46:46.876Z,1000.98
2019-05-03T10:47:47.395Z,1001.01
2019-05-03T10:48:47.291Z,1001.08
2019-05-03T10:49:47.580Z,1001.10
2019-05-03T10:50:50.764Z,1001.07
2019-05-03T10:51:48.337Z,1001.13
2019-05-03T10:52:48.538Z,1001.09
2019-05-03T10:53:48.630Z,1001.04
2019-05-03T10:54:48.584Z,1001.04
2019-05-03T10:55:48.873Z,1000.95
2019-05-03T10:56:48.957Z,1001.01
2019-05-03T10:57:49.213Z,1001.12
2019-05-03T10:58:49.905Z,1001.17
2019-05-03T10:59:50.083Z,1001.15
2019-05-03T11:00:53.184Z,1001.06
2019-05-03T11:01:50.447Z,1001.09
2019-05-03T11:02:51.036Z,1001.04
2019-05-03T11:03:51.304Z,1000.99
2019-05-03T11:04:51.743Z,1001.10
2019-05-03T11:05:52.017Z,1001.04
2019-05-03T11:06:52.409Z,1001.08
2019-05-03T11:07:52.698Z,1000.99
2019-05-03T11:08:54.609Z,1001.01
2019-05-03T11:09:55.118Z,1001.14
2019-05-03T11:10:54.919Z,1001.18
2019-05-03T11:11:55.543Z,1001.17
2019-05-03T11:12:54.878Z,1001.09
2019-05-03T11:13:54.266Z,1001.09
2019-05-03T11:14:54.653Z,1001.10
2019-05-03T11:15:55.261Z,1001.10
2019-05-03T11:16:55.379Z,1001.09
2019-05-03T11:17:55.567Z,1001.02
2019-05-03T11:18:55.339Z,1001.04
2019-05-03T11:19:55.571Z,1001.06
2019-05-03T11:20:55.815Z,1001.06
2019-05-03T11:21:56.399Z,1001.00
2019-05-03T11:22:56.138Z,1001.00
2019-05-03T11:23:56.576Z,1000.99
2019-05-03T11:24:56.949Z,1001.05
2019-05-03T11:25:57.310Z,1001.02
2019-05-03T11:27:00.068Z,1000.98
2019-05-03T11:27:57.962Z,1000.94
2019-05-03T11:29:00.505Z,1001.03
2019-05-03T11:29:59.258Z,1001.01
2019-05-03T11:31:02.276Z,1000.98
2019-05-03T11:31:58.880Z,1001.01
2019-05-03T11:32:59.277Z,1000.93
2019-05-03T11:33:59.431Z,1000.93
2019-05-03T11:34:59.481Z,1000.84
2019-05-03T11:35:59.885Z,1000.97
2019-05-03T11:37:00.514Z,1000.96
2019-05-03T11:38:00.452Z,1000.89
2019-05-03T11:39:00.629Z,1000.85
2019-05-03T11:40:01.160Z,1000.86
2019-05-03T11:41:01.339Z,1000.88
2019-05-03T11:42:01.917Z,1000.88
2019-05-03T11:43:01.836Z,1000.85
2019-05-03T11:44:02.399Z,1000.87
2019-05-03T11:45:02.607Z,1000.88
2019-05-03T11:46:02.671Z,1000.88
2019-05-03T11:47:02.736Z,1000.93
2019-05-03T11:48:02.807Z,1000.90
2019-05-03T11:49:03.108Z,1000.94
2019-05-03T11:50:03.177Z,1000.94
2019-05-03T11:51:03.237Z,1000.99
2019-05-03T11:52:03.309Z,1000.86
2019-05-03T11:53:05.203Z,1000.91
2019-05-03T11:54:05.894Z,1000.89
2019-05-03T11:55:10.437Z,1000.98
2019-05-03T11:56:05.469Z,1000.99
2019-05-03T11:57:05.083Z,1000.95
2019-05-03T11:58:05.628Z,1000.94
2019-05-03T11:59:05.287Z,1000.97
2019-05-03T12:00:05.421Z,1000.93
2019-05-03T12:01:15.029Z,1000.84
2019-05-03T12:02:05.215Z,1000.94
2019-05-03T12:03:05.442Z,1000.91
2019-05-03T12:04:06.503Z,1000.95
2019-05-03T12:05:05.812Z,1001.11
2019-05-03T12:06:05.805Z,1001.08
2019-05-03T12:07:06.242Z,1001.06
2019-05-03T12:08:06.573Z,1001.01
2019-05-03T12:09:06.568Z,1001.12
2019-05-03T12:10:16.936Z,1001.02
2019-05-03T12:11:07.234Z,1000.93
2019-05-03T12:12:07.523Z,1000.93
2019-05-03T12:13:08.099Z,1000.99
2019-05-03T12:14:07.825Z,1000.91
2019-05-03T12:15:07.816Z,1000.94
2019-05-03T12:16:17.475Z,1000.94
2019-05-03T12:17:18.396Z,1001.05
2019-05-03T12:18:09.589Z,1001.03
2019-05-03T12:19:16.879Z,1001.01
2019-05-03T12:20:11.054Z,1001.08
2019-05-03T12:21:10.909Z,1000.98
2019-05-03T12:22:11.177Z,1000.98
2019-05-03T12:23:11.211Z,1000.96
2019-05-03T12:24:11.277Z,1000.91
2019-05-03T12:25:11.351Z,1000.97
2019-05-03T12:26:13.381Z,1000.98